Time;durP1;ratioP1;P1;durP2;ratioP2;P2;SDS_P1;SDS_P2;PMS_P1;PMS_P2;Temp;Humidity;BMP_temperature;BMP_pressure;BME280_temperature;BME280_humidity;BME280_pressure;Samples;Min_cycle;Max_cycle;Signal;HPM_P1;HPM_P2
2022/08/07 00:01:14;;;;;;;8.13;3.70;;;18.40;83.80;;;;;;5100812;28;20805;-55
2022/08/07 00:03:41;;;;;;;11.63;5.07;;;18.40;84.40;;;;;;5100177;28;20471;-54
2022/08/07 00:06:08;;;;;;;6.30;4.30;;;18.40;84.90;;;;;;5102080;28;20437;-54
2022/08/07 00:08:35;;;;;;;7.40;3.53;;;18.40;85.30;;;;;;5103624;28;20537;-53
2022/08/07 00:11:02;;;;;;;5.60;3.90;;;18.40;85.70;;;;;;5102686;28;20916;-53
2022/08/07 00:13:29;;;;;;;5.53;4.20;;;18.40;86.10;;;;;;5101823;28;20447;-56
2022/08/07 00:15:58;;;;;;;7.43;4.07;;;18.40;86.40;;;;;;5100686;28;20812;-55
2022/08/07 00:18:26;;;;;;;9.37;4.07;;;18.30;87.00;;;;;;5100724;28;20589;-53
2022/08/07 00:20:55;;;;;;;7.23;4.07;;;18.30;87.60;;;;;;5100315;28;20469;-56
2022/08/07 00:23:22;;;;;;;11.27;4.53;;;18.30;88.20;;;;;;5099849;28;20434;-50
2022/08/07 00:25:50;;;;;;;5.00;3.17;;;18.30;88.80;;;;;;5099992;28;20459;-52
2022/08/07 00:28:17;;;;;;;4.80;3.30;;;18.20;89.20;;;;;;5099670;28;20484;-52
2022/08/07 00:30:44;;;;;;;4.13;3.30;;;18.20;89.80;;;;;;5099661;28;20449;-53
2022/08/07 00:33:12;;;;;;;7.70;3.43;;;18.20;90.00;;;;;;5099492;28;20986;-52
2022/08/07 00:35:39;;;;;;;4.47;3.00;;;18.20;90.40;;;;;;5100041;28;20445;-55
2022/08/07 00:38:05;;;;;;;6.43;3.13;;;18.20;90.70;;;;;;5100388;28;20461;-54
2022/08/07 00:40:35;;;;;;;3.33;3.03;;;18.20;90.70;;;;;;5099716;28;20517;-52
2022/08/07 00:43:02;;;;;;;8.37;3.90;;;18.10;91.00;;;;;;5099695;28;20461;-50
2022/08/07 00:45:29;;;;;;;6.23;3.57;;;18.10;91.40;;;;;;5099224;28;20572;-55
2022/08/07 00:47:56;;;;;;;4.57;3.10;;;18.10;91.50;;;;;;5099613;28;20441;-54
2022/08/07 00:50:24;;;;;;;4.00;2.77;;;18.00;91.80;;;;;;5099587;28;20468;-56
2022/08/07 00:52:51;;;;;;;9.33;3.50;;;18.00;92.20;;;;;;5098280;28;20448;-51
2022/08/07 00:55:18;;;;;;;5.10;3.20;;;18.00;92.50;;;;;;5099852;28;20755;-49
2022/08/07 00:57:45;;;;;;;2.90;2.23;;;18.00;92.80;;;;;;5099518;28;20536;-48
2022/08/07 01:00:14;;;;;;;6.03;3.30;;;17.90;93.00;;;;;;5099090;28;20445;-49
2022/08/07 01:02:42;;;;;;;5.10;3.23;;;17.90;93.20;;;;;;5099141;28;20442;-54
2022/08/07 01:05:10;;;;;;;7.13;3.13;;;17.90;93.50;;;;;;5099513;28;20457;-55
2022/08/07 01:07:39;;;;;;;4.53;3.23;;;17.80;93.70;;;;;;5099193;28;20906;-55
2022/08/07 01:10:07;;;;;;;6.07;2.70;;;17.80;94.00;;;;;;5098612;28;20480;-52
2022/08/07 01:12:34;;;;;;;4.27;2.80;;;17.80;94.30;;;;;;5099467;28;20453;-51
2022/08/07 01:15:01;;;;;;;7.03;2.80;;;17.80;94.60;;;;;;5098976;28;20463;-50
2022/08/07 01:17:29;;;;;;;3.97;2.43;;;17.80;94.90;;;;;;5099493;28;20444;-52
2022/08/07 01:20:05;;;;;;;4.33;2.70;;;17.80;95.20;;;;;;5098894;28;20469;-54
2022/08/07 01:22:35;;;;;;;5.00;3.50;;;17.80;95.60;;;;;;5099222;28;20552;-55
2022/08/07 01:25:02;;;;;;;6.57;3.27;;;17.70;95.80;;;;;;5099235;28;20659;-53
2022/08/07 01:27:29;;;;;;;4.93;2.80;;;17.70;96.20;;;;;;5098910;28;20466;-52
2022/08/07 01:29:56;;;;;;;3.07;2.47;;;17.80;96.40;;;;;;5098993;28;20430;-50
2022/08/07 01:32:23;;;;;;;9.27;4.07;;;17.70;96.80;;;;;;5098867;28;20468;-51
2022/08/07 01:34:51;;;;;;;3.30;2.80;;;17.70;97.00;;;;;;5098924;28;20469;-53
2022/08/07 01:37:18;;;;;;;3.20;2.60;;;17.70;97.60;;;;;;5098815;28;20454;-53
2022/08/07 01:39:47;;;;;;;6.10;3.27;;;17.60;97.70;;;;;;5098843;28;20489;-52
2022/08/07 01:42:15;;;;;;;3.30;2.77;;;17.60;98.10;;;;;;5098350;28;20430;-55
2022/08/07 01:44:42;;;;;;;3.80;2.47;;;17.60;98.30;;;;;;5098634;28;20445;-52
2022/08/07 01:47:12;;;;;;;6.90;3.27;;;17.60;98.60;;;;;;5098549;28;20441;-53
2022/08/07 01:49:39;;;;;;;2.90;2.00;;;17.60;98.90;;;;;;5098368;28;20464;-51
2022/08/07 01:52:08;;;;;;;3.07;2.50;;;17.60;99.00;;;;;;5098070;28;20469;-56
2022/08/07 01:54:39;;;;;;;4.20;2.87;;;17.50;99.20;;;;;;5098298;28;20774;-55
2022/08/07 01:57:13;;;;;;;5.70;2.80;;;17.50;99.50;;;;;;5098525;28;20476;-51
2022/08/07 01:59:45;;;;;;;6.63;2.83;;;17.50;99.70;;;;;;5098711;28;20466;-52
2022/08/07 02:02:19;;;;;;;5.63;3.00;;;17.50;99.90;;;;;;5098783;28;20448;-54
2022/08/07 02:04:52;;;;;;;4.03;1.83;;;17.50;99.90;;;;;;5097994;28;20469;-53
2022/08/07 02:07:23;;;;;;;3.60;2.40;;;17.50;99.90;;;;;;5098383;28;20426;-52
2022/08/07 02:09:52;;;;;;;3.60;2.70;;;17.40;99.90;;;;;;5098594;28;20422;-54
2022/08/07 02:12:23;;;;;;;3.50;2.30;;;17.40;99.90;;;;;;5098492;28;20430;-56
2022/08/07 02:14:53;;;;;;;4.60;3.00;;;17.40;99.90;;;;;;5098628;28;20422;-48
2022/08/07 02:17:24;;;;;;;3.93;2.37;;;17.40;99.90;;;;;;5098423;28;20483;-53
2022/08/07 02:19:53;;;;;;;3.63;2.50;;;17.40;99.90;;;;;;5098287;28;20476;-55
2022/08/07 02:22:22;;;;;;;4.00;2.40;;;17.40;99.90;;;;;;5098358;28;20560;-55
2022/08/07 02:24:52;;;;;;;4.90;2.60;;;17.40;99.90;;;;;;5098382;28;20492;-55
2022/08/07 02:27:23;;;;;;;5.40;2.87;;;17.40;99.90;;;;;;5097815;28;20441;-55
2022/08/07 02:29:51;;;;;;;6.30;2.80;;;17.40;99.90;;;;;;5098266;28;20501;-49
2022/08/07 02:32:20;;;;;;;3.53;2.50;;;17.30;99.90;;;;;;5097867;28;20754;-50
2022/08/07 02:34:49;;;;;;;4.60;3.13;;;17.30;99.90;;;;;;5098086;28;20465;-55
2022/08/07 02:37:17;;;;;;;4.60;2.63;;;17.30;99.90;;;;;;5098294;28;20473;-55
2022/08/07 02:39:45;;;;;;;3.70;2.43;;;17.30;99.90;;;;;;5097581;28;20486;-54
2022/08/07 02:42:13;;;;;;;5.03;2.90;;;17.30;99.90;;;;;;5097867;28;20453;-53
2022/08/07 02:44:44;;;;;;;4.60;2.80;;;17.20;99.90;;;;;;5097966;28;20445;-55
2022/08/07 02:47:14;;;;;;;3.67;2.80;;;17.20;99.90;;;;;;5108215;28;20476;-53
2022/08/07 02:49:41;;;;;;;8.53;2.67;;;17.20;99.90;;;;;;5107125;28;20503;-55
2022/08/07 02:52:13;;;;;;;5.20;3.10;;;17.10;99.90;;;;;;5094715;28;20453;-52
2022/08/07 02:54:42;;;;;;;5.30;3.23;;;17.10;99.90;;;;;;5093844;28;20893;-52
2022/08/07 02:57:15;;;;;;;6.00;3.10;;;17.10;99.90;;;;;;5115483;28;20426;-37
2022/08/07 02:59:49;;;;;;;3.47;2.70;;;17.00;99.90;;;;;;5102185;28;20956;-53
2022/08/07 03:02:16;;;;;;;4.10;3.00;;;17.00;99.90;;;;;;5097969;28;20495;-55
2022/08/07 03:04:46;;;;;;;6.20;2.77;;;17.00;99.90;;;;;;5098043;28;20469;-55
2022/08/07 03:07:13;;;;;;;3.60;2.93;;;17.00;99.90;;;;;;5097228;28;20437;-52
2022/08/07 03:09:44;;;;;;;5.47;3.50;;;17.00;99.90;;;;;;5097806;28;20438;-55
2022/08/07 03:12:12;;;;;;;5.67;3.50;;;17.00;99.90;;;;;;5096559;28;20430;-53
2022/08/07 03:14:39;;;;;;;5.03;2.63;;;17.00;99.90;;;;;;5095487;28;20445;-53
2022/08/07 03:17:07;;;;;;;5.60;3.20;;;17.00;99.90;;;;;;5099236;28;20552;-52
2022/08/07 03:19:35;;;;;;;4.03;2.20;;;17.00;99.90;;;;;;5099454;28;20473;-56
2022/08/07 03:22:04;;;;;;;3.27;2.63;;;17.00;99.90;;;;;;5099481;28;20473;-56
2022/08/07 03:24:31;;;;;;;5.67;3.27;;;16.90;99.90;;;;;;5099884;28;20440;-56
2022/08/07 03:27:01;;;;;;;4.30;2.90;;;16.90;99.90;;;;;;5099292;28;20459;-56
2022/08/07 03:29:34;;;;;;;4.77;2.80;;;17.00;99.90;;;;;;5099281;28;20452;-54
2022/08/07 03:32:05;;;;;;;3.57;2.80;;;16.90;99.90;;;;;;5099302;28;20433;-56
2022/08/07 03:34:34;;;;;;;2.80;2.30;;;16.90;99.90;;;;;;5099423;28;20724;-56
2022/08/07 03:37:02;;;;;;;11.10;3.30;;;16.90;99.90;;;;;;5099688;28;20475;-52
2022/08/07 03:39:31;;;;;;;4.03;2.50;;;16.90;99.90;;;;;;5099101;28;20489;-53
2022/08/07 03:41:59;;;;;;;2.90;2.70;;;16.80;99.90;;;;;;5099135;28;20459;-51
2022/08/07 03:44:27;;;;;;;4.00;3.17;;;16.80;99.90;;;;;;5099506;28;20469;-54
2022/08/07 03:46:54;;;;;;;3.43;2.40;;;16.80;99.90;;;;;;5098892;28;20442;-54
2022/08/07 03:49:24;;;;;;;4.23;2.67;;;16.80;99.90;;;;;;5098985;28;20448;-54
2022/08/07 03:51:53;;;;;;;3.10;2.50;;;16.80;99.90;;;;;;5099574;28;20445;-57
2022/08/07 03:54:20;;;;;;;3.73;2.60;;;16.80;99.90;;;;;;5101289;28;20787;-48
2022/08/07 03:56:47;;;;;;;4.37;2.70;;;16.80;99.90;;;;;;5100544;28;20469;-54
2022/08/07 03:59:17;;;;;;;5.10;2.30;;;16.90;99.90;;;;;;5101093;28;20477;-55
2022/08/07 04:01:45;;;;;;;4.20;2.90;;;16.90;99.90;;;;;;5101154;28;20476;-50
2022/08/07 04:04:12;;;;;;;3.13;2.47;;;16.90;99.90;;;;;;5100859;28;20724;-54
2022/08/07 04:06:42;;;;;;;4.40;2.40;;;17.00;99.90;;;;;;5100695;28;20547;-52
2022/08/07 04:09:12;;;;;;;6.93;2.80;;;17.00;99.90;;;;;;5101227;28;20881;-54
2022/08/07 04:11:39;;;;;;;7.00;2.90;;;17.00;99.90;;;;;;5100609;28;20460;-53
2022/08/07 04:14:08;;;;;;;2.40;2.10;;;17.00;99.90;;;;;;5100889;28;20452;-55
2022/08/07 04:16:36;;;;;;;3.87;2.50;;;17.10;99.90;;;;;;5100810;28;20874;-54
2022/08/07 04:19:04;;;;;;;3.60;2.20;;;17.10;99.90;;;;;;5100467;28;20913;-53
2022/08/07 04:21:31;;;;;;;3.23;2.07;;;17.10;99.90;;;;;;5100524;28;20552;-55
2022/08/07 04:23:58;;;;;;;2.87;2.20;;;17.10;99.90;;;;;;5100583;28;20566;-54
2022/08/07 04:26:27;;;;;;;3.47;2.20;;;17.10;99.90;;;;;;5099954;28;20494;-56
2022/08/07 04:28:54;;;;;;;3.07;2.27;;;17.10;99.90;;;;;;5100286;28;20463;-55
2022/08/07 04:31:25;;;;;;;2.63;2.07;;;17.10;99.90;;;;;;5100028;28;20446;-55
2022/08/07 04:33:52;;;;;;;5.73;2.30;;;17.20;99.90;;;;;;5100371;28;20457;-53
2022/08/07 04:36:19;;;;;;;2.03;1.60;;;17.20;99.90;;;;;;5098041;28;20465;-54
2022/08/07 04:38:46;;;;;;;2.73;2.43;;;17.20;99.90;;;;;;5097662;28;20544;-51
2022/08/07 04:41:13;;;;;;;3.90;2.80;;;17.20;99.90;;;;;;5098126;28;20552;-53
2022/08/07 04:43:43;;;;;;;5.83;3.00;;;17.20;99.90;;;;;;5097707;28;20914;-56
2022/08/07 04:46:15;;;;;;;7.70;2.70;;;17.20;99.90;;;;;;5097427;28;20433;-52
2022/08/07 04:48:50;;;;;;;5.17;2.13;;;17.30;99.90;;;;;;5098000;28;20454;-55
2022/08/07 04:51:26;;;;;;;4.70;2.33;;;17.30;99.90;;;;;;5097828;28;20425;-52
2022/08/07 04:53:59;;;;;;;3.37;2.40;;;17.30;99.90;;;;;;5097669;28;20542;-52
2022/08/07 04:56:31;;;;;;;4.83;3.00;;;17.30;99.90;;;;;;5097973;28;20491;-51
2022/08/07 04:59:06;;;;;;;3.67;3.10;;;17.40;99.90;;;;;;5097607;28;20469;-51
2022/08/07 05:01:41;;;;;;;3.70;2.10;;;17.40;99.90;;;;;;5097667;28;20445;-53
2022/08/07 05:04:11;;;;;;;3.50;2.40;;;17.40;99.90;;;;;;5097454;28;20468;-58
2022/08/07 05:06:44;;;;;;;2.63;2.00;;;17.40;99.90;;;;;;5098148;28;20437;-55
2022/08/07 05:09:22;;;;;;;3.60;2.30;;;17.40;99.90;;;;;;5097502;28;20433;-55
2022/08/07 05:11:53;;;;;;;3.97;1.70;;;17.40;99.90;;;;;;5097771;28;20437;-55
2022/08/07 05:14:26;;;;;;;2.70;2.13;;;17.40;99.90;;;;;;5097569;28;20489;-55
2022/08/07 05:16:58;;;;;;;5.13;2.70;;;17.40;99.90;;;;;;5097619;28;20477;-55
2022/08/07 05:19:29;;;;;;;2.37;1.63;;;17.50;99.90;;;;;;5097063;28;20958;-51
2022/08/07 05:21:59;;;;;;;3.00;2.43;;;17.50;99.90;;;;;;5097237;28;20470;-53
2022/08/07 05:24:28;;;;;;;4.90;2.30;;;17.60;99.90;;;;;;5097561;28;20444;-54
2022/08/07 05:26:57;;;;;;;3.03;2.13;;;17.60;99.90;;;;;;5096961;28;20469;-47
2022/08/07 05:29:27;;;;;;;3.00;2.30;;;17.60;99.90;;;;;;5097378;28;20501;-56
2022/08/07 05:31:55;;;;;;;4.50;2.67;;;17.60;99.90;;;;;;5097289;28;20571;-54
2022/08/07 05:34:25;;;;;;;2.97;2.17;;;17.60;99.90;;;;;;5098347;28;20742;-48
2022/08/07 05:36:55;;;;;;;2.67;2.17;;;17.70;99.90;;;;;;5098425;28;20492;-54
2022/08/07 05:39:23;;;;;;;4.93;2.40;;;17.70;99.90;;;;;;5097265;28;20504;-55
2022/08/07 05:41:51;;;;;;;2.30;2.00;;;17.80;99.90;;;;;;5097125;28;20469;-54
2022/08/07 05:44:20;;;;;;;3.83;1.80;;;17.90;99.90;;;;;;5096917;28;20465;-52
2022/08/07 05:46:49;;;;;;;1.90;1.70;;;17.90;99.90;;;;;;5096686;28;20464;-54
2022/08/07 05:49:17;;;;;;;2.67;1.87;;;18.00;99.90;;;;;;5096593;28;20527;-54
2022/08/07 05:51:45;;;;;;;3.93;1.73;;;18.00;99.90;;;;;;5096663;28;20441;-55
2022/08/07 05:54:12;;;;;;;2.80;1.63;;;18.10;99.90;;;;;;5096222;28;20464;-53
2022/08/07 05:56:40;;;;;;;6.20;1.70;;;18.10;99.90;;;;;;5096484;28;20442;-52
2022/08/07 05:59:12;;;;;;;2.80;1.50;;;18.20;99.90;;;;;;5096512;28;20513;-55
2022/08/07 06:01:40;;;;;;;4.20;2.40;;;18.20;99.90;;;;;;5096017;28;20472;-50
2022/08/07 06:04:10;;;;;;;6.80;1.97;;;18.30;99.90;;;;;;5096231;28;20863;-48
2022/08/07 06:06:37;;;;;;;4.40;1.77;;;18.40;99.90;;;;;;5095678;28;20465;-55
2022/08/07 06:09:04;;;;;;;6.30;2.07;;;18.40;99.90;;;;;;5095781;28;20457;-55
2022/08/07 06:11:32;;;;;;;3.00;1.90;;;18.50;99.90;;;;;;5096011;28;20457;-52
2022/08/07 06:13:59;;;;;;;2.47;2.07;;;18.60;99.90;;;;;;5096569;28;20445;-57
2022/08/07 06:16:33;;;;;;;3.00;1.83;;;18.60;99.90;;;;;;5096007;28;20464;-54
2022/08/07 06:19:01;;;;;;;3.87;1.73;;;18.70;99.90;;;;;;5096267;28;20465;-56
2022/08/07 06:21:29;;;;;;;4.53;2.40;;;18.70;99.90;;;;;;5096026;28;20558;-51
2022/08/07 06:23:57;;;;;;;3.07;2.77;;;18.80;99.10;;;;;;5095757;28;20465;-52
2022/08/07 06:26:25;;;;;;;2.43;1.50;;;18.90;98.90;;;;;;5096036;28;20475;-57
2022/08/07 06:28:53;;;;;;;2.43;1.80;;;19.00;98.80;;;;;;5096043;28;20448;-52
2022/08/07 06:31:20;;;;;;;3.90;2.23;;;19.00;98.60;;;;;;5095618;28;20763;-54
2022/08/07 06:33:48;;;;;;;3.70;1.80;;;19.10;98.70;;;;;;5089821;28;20461;-54
2022/08/07 06:36:15;;;;;;;3.13;2.00;;;19.10;98.50;;;;;;5088287;28;20487;-55
2022/08/07 06:38:44;;;;;;;3.60;1.83;;;19.20;98.20;;;;;;5095087;28;20433;-53
2022/08/07 06:41:15;;;;;;;5.03;1.77;;;19.30;97.80;;;;;;5094886;28;20477;-55
2022/08/07 06:43:44;;;;;;;4.80;1.80;;;19.40;97.30;;;;;;5095300;28;20433;-56
2022/08/07 06:46:11;;;;;;;2.63;1.70;;;19.50;96.20;;;;;;5095063;28;20458;-50
2022/08/07 06:48:38;;;;;;;7.07;1.80;;;19.60;96.80;;;;;;5092336;28;20434;-54
2022/08/07 06:51:09;;;;;;;1.90;1.50;;;19.70;95.90;;;;;;5094243;28;20445;-56
2022/08/07 06:53:40;;;;;;;2.50;1.90;;;19.80;95.60;;;;;;5094935;28;20453;-55
2022/08/07 06:56:11;;;;;;;2.50;1.80;;;19.80;95.20;;;;;;5093118;28;20438;-56
2022/08/07 06:58:40;;;;;;;2.83;1.60;;;19.90;94.90;;;;;;5087834;28;20465;-55
2022/08/07 07:01:09;;;;;;;4.43;1.40;;;20.00;94.30;;;;;;5093681;28;21036;-51
2022/08/07 07:03:39;;;;;;;5.27;1.90;;;20.00;94.40;;;;;;5094523;28;20476;-55
2022/08/07 07:06:07;;;;;;;3.43;1.57;;;20.00;93.80;;;;;;5092711;28;20446;-49
2022/08/07 07:08:35;;;;;;;3.30;1.60;;;20.10;93.50;;;;;;5094395;28;20460;-54
2022/08/07 07:11:04;;;;;;;2.40;1.93;;;20.20;93.40;;;;;;5094649;28;20440;-55
2022/08/07 07:13:36;;;;;;;2.10;1.53;;;20.30;92.50;;;;;;5094725;28;20453;-52
2022/08/07 07:16:07;;;;;;;3.90;1.60;;;20.30;92.80;;;;;;5094333;28;20751;-55
2022/08/07 07:18:40;;;;;;;5.50;2.27;;;20.40;92.50;;;;;;5096857;28;20445;-56
2022/08/07 07:21:11;;;;;;;5.83;1.90;;;20.50;91.80;;;;;;5094539;28;20485;-56
2022/08/07 07:23:38;;;;;;;2.90;1.40;;;20.60;91.60;;;;;;5096584;28;20434;-50
2022/08/07 07:26:11;;;;;;;1.93;1.43;;;20.80;92.20;;;;;;5096783;28;20795;-53
2022/08/07 07:28:44;;;;;;;8.43;2.33;;;21.00;91.20;;;;;;5094262;28;20432;-52
2022/08/07 07:31:15;;;;;;;4.20;2.20;;;21.20;91.00;;;;;;5094225;28;20437;-52
2022/08/07 07:33:44;;;;;;;3.83;2.13;;;21.30;90.10;;;;;;5096738;28;20654;-55
2022/08/07 07:36:11;;;;;;;5.80;3.77;;;21.30;86.80;;;;;;5096298;28;20480;-50
2022/08/07 07:38:40;;;;;;;5.33;3.27;;;21.40;88.30;;;;;;5095718;28;20926;-52
2022/08/07 07:41:11;;;;;;;3.13;2.50;;;21.50;87.40;;;;;;5094686;28;20556;-54
2022/08/07 07:43:41;;;;;;;9.10;4.07;;;21.70;85.90;;;;;;5094575;28;20480;-54
2022/08/07 07:46:09;;;;;;;11.50;3.27;;;21.90;86.90;;;;;;5093646;28;20440;-56
2022/08/07 07:48:39;;;;;;;12.83;4.17;;;22.10;86.60;;;;;;5094123;28;20946;-55
2022/08/07 07:51:07;;;;;;;5.30;2.67;;;22.40;84.20;;;;;;5094966;28;20429;-56
2022/08/07 07:53:37;;;;;;;5.60;2.03;;;23.00;81.40;;;;;;5093968;28;20472;-56
2022/08/07 07:56:06;;;;;;;3.77;2.73;;;24.50;77.80;;;;;;5094458;28;20465;-56
2022/08/07 07:58:37;;;;;;;2.57;1.90;;;26.50;69.90;;;;;;5094280;28;20469;-53
2022/08/07 08:01:07;;;;;;;1.90;1.70;;;28.40;60.60;;;;;;5094131;28;20473;-50
2022/08/07 08:03:36;;;;;;;2.90;1.90;;;30.10;54.40;;;;;;5098662;28;20445;-60
2022/08/07 08:06:04;;;;;;;3.20;1.77;;;31.50;49.60;;;;;;5098948;28;20448;-58
2022/08/07 08:08:32;;;;;;;2.10;1.90;;;32.10;46.90;;;;;;5097997;28;20451;-52
2022/08/07 08:11:00;;;;;;;3.70;2.30;;;33.40;45.60;;;;;;5097856;28;20438;-55
2022/08/07 08:13:29;;;;;;;5.63;3.03;;;34.80;42.50;;;;;;5097871;28;20453;-56
2022/08/07 08:16:00;;;;;;;2.77;2.20;;;35.90;40.40;;;;;;5097649;28;20442;-53
2022/08/07 08:18:29;;;;;;;3.80;2.70;;;36.60;38.00;;;;;;5095473;28;20449;-54
2022/08/07 08:20:59;;;;;;;7.13;2.93;;;37.10;36.30;;;;;;5097547;28;20469;-55
2022/08/07 08:29:00;;;;;;;3.03;2.27;;;37.80;34.10;;;;;;5097223;28;20429;-52
2022/08/07 08:31:32;;;;;;;2.33;1.50;;;38.10;33.70;;;;;;5095676;28;20479;-57
2022/08/07 08:34:03;;;;;;;1.90;1.63;;;38.20;32.90;;;;;;5097771;28;20438;-52
2022/08/07 08:36:33;;;;;;;14.13;12.70;;;37.60;33.10;;;;;;5096958;28;20480;-52
2022/08/07 08:39:02;;;;;;;21.60;18.90;;;37.00;33.30;;;;;;5097496;28;20454;-52
2022/08/07 08:41:36;;;;;;;2.87;1.60;;;36.40;34.10;;;;;;5096887;28;20480;-55
2022/08/07 08:44:09;;;;;;;1.70;1.50;;;36.20;33.80;;;;;;5097288;28;20425;-55
2022/08/07 08:46:46;;;;;;;2.47;1.50;;;35.90;33.90;;;;;;5097008;28;20944;-56
2022/08/07 08:49:21;;;;;;;2.93;2.20;;;35.40;34.40;;;;;;5098085;28;20524;-53
2022/08/07 08:51:57;;;;;;;2.40;1.77;;;34.50;34.80;;;;;;5077847;28;20462;-57
2022/08/07 08:54:29;;;;;;;2.63;1.50;;;33.00;36.30;;;;;;5079665;28;20437;-57
2022/08/07 08:57:00;;;;;;;2.27;2.07;;;32.80;37.50;;;;;;5097082;28;20461;-55
2022/08/07 08:59:31;;;;;;;2.13;1.93;;;33.20;37.20;;;;;;5096973;28;20426;-54
2022/08/07 09:02:08;;;;;;;2.47;1.97;;;33.90;36.30;;;;;;5096783;28;20485;-53
2022/08/07 09:04:44;;;;;;;2.60;2.23;;;34.10;35.60;;;;;;5098626;28;20526;-56
2022/08/07 09:07:17;;;;;;;7.80;2.33;;;34.20;36.00;;;;;;5096497;28;20465;-57
2022/08/07 09:09:55;;;;;;;2.47;1.80;;;34.30;35.50;;;;;;5096285;28;20477;-54
2022/08/07 09:12:37;;;;;;;3.27;1.60;;;34.00;35.40;;;;;;5096523;28;20488;-54
2022/08/07 09:15:15;;;;;;;4.50;1.87;;;34.20;35.70;;;;;;5095377;28;20440;-57
2022/08/07 09:17:52;;;;;;;2.10;1.90;;;34.30;35.40;;;;;;5095382;28;20791;-57
2022/08/07 09:20:32;;;;;;;2.97;1.80;;;34.60;35.30;;;;;;5096875;28;20437;-56
2022/08/07 09:23:07;;;;;;;1.70;1.37;;;34.80;34.60;;;;;;5096183;28;20418;-59
2022/08/07 09:25:41;;;;;;;3.20;2.33;;;35.10;33.90;;;;;;5096787;28;20447;-58
2022/08/07 09:28:17;;;;;;;10.07;1.67;;;35.50;34.20;;;;;;5096147;28;20461;-56
2022/08/07 09:30:56;;;;;;;1.80;1.60;;;35.70;33.60;;;;;;5096536;28;20422;-53
2022/08/07 09:33:40;;;;;;;4.40;1.90;;;35.70;33.50;;;;;;5096102;28;20436;-56
2022/08/07 09:36:15;;;;;;;3.00;1.80;;;35.70;33.40;;;;;;5097571;28;20479;-49
2022/08/07 09:38:49;;;;;;;2.53;2.20;;;35.50;33.10;;;;;;5097580;28;20453;-51
2022/08/07 09:41:28;;;;;;;3.40;1.70;;;35.50;33.80;;;;;;5097094;28;20481;-51
2022/08/07 09:44:03;;;;;;;2.27;1.93;;;35.50;33.30;;;;;;5097520;28;20425;-54
2022/08/07 09:46:41;;;;;;;2.20;1.50;;;35.70;33.50;;;;;;5097134;28;20476;-50
2022/08/07 09:49:19;;;;;;;3.40;2.20;;;35.90;33.10;;;;;;5096805;28;20484;-52
2022/08/07 09:52:01;;;;;;;3.73;1.80;;;36.30;32.80;;;;;;5096541;28;20472;-50
2022/08/07 09:54:34;;;;;;;3.93;2.20;;;36.30;32.20;;;;;;5096038;28;20434;-51
2022/08/07 09:57:43;;;;;;;2.67;2.03;;;36.20;32.80;;;;;;5096992;28;20494;-55
2022/08/07 10:00:11;;;;;;;3.60;1.70;;;35.70;32.70;;;;;;5100199;28;20520;-56
2022/08/07 10:03:06;;;;;;;2.33;1.53;;;35.00;32.90;;;;;;5100138;28;20588;-48
2022/08/07 10:05:52;;;;;;;5.23;2.17;;;33.60;34.60;;;;;;5100423;28;20930;-52
2022/08/07 10:08:54;;;;;;;3.50;1.73;;;32.60;35.90;;;;;;5079927;28;20466;-54
2022/08/07 10:11:37;;;;;;;2.33;1.90;;;32.00;36.60;;;;;;5086930;28;20441;-48
2022/08/07 10:14:15;;;;;;;1.83;1.73;;;32.10;37.20;;;;;;5099990;28;20480;-53
2022/08/07 10:17:05;;;;;;;1.90;1.60;;;32.20;37.00;;;;;;5095473;28;20444;-53
2022/08/07 10:19:43;;;;;;;2.13;1.90;;;32.50;36.80;;;;;;5075366;28;20531;-52
2022/08/07 10:22:32;;;;;;;2.17;1.87;;;33.10;36.30;;;;;;5080173;28;20457;-50
2022/08/07 10:25:16;;;;;;;2.80;2.00;;;33.50;35.40;;;;;;5095615;28;20552;-49
2022/08/07 10:27:57;;;;;;;2.00;1.80;;;33.80;36.20;;;;;;5095544;28;20425;-49
2022/08/07 10:30:33;;;;;;;4.50;1.87;;;34.10;35.10;;;;;;5095801;28;20801;-50
2022/08/07 10:33:14;;;;;;;2.00;1.80;;;34.10;34.90;;;;;;5095514;28;20767;-53
2022/08/07 10:35:55;;;;;;;2.10;1.90;;;34.10;34.90;;;;;;5096819;28;20461;-52
2022/08/07 10:38:37;;;;;;;2.70;1.60;;;34.00;35.20;;;;;;5098463;28;20446;-53
2022/08/07 10:41:09;;;;;;;3.30;2.30;;;34.10;34.40;;;;;;5095435;28;20466;-53
2022/08/07 10:43:43;;;;;;;2.77;2.10;;;34.20;34.30;;;;;;5095663;28;20461;-53
2022/08/07 10:46:15;;;;;;;4.90;2.33;;;33.10;34.80;;;;;;5096289;28;20426;-56
2022/08/07 10:48:50;;;;;;;3.93;2.03;;;31.70;36.40;;;;;;5095823;28;20545;-51
2022/08/07 10:51:21;;;;;;;3.00;2.00;;;30.60;37.60;;;;;;5095715;28;20443;-52
2022/08/07 10:53:56;;;;;;;3.10;1.70;;;29.50;39.30;;;;;;5095113;28;20469;-53
2022/08/07 10:56:34;;;;;;;2.60;2.03;;;28.50;39.80;;;;;;5094706;28;20437;-47
2022/08/07 10:59:10;;;;;;;1.60;1.40;;;27.90;40.80;;;;;;5094956;28;20461;-48
2022/08/07 11:01:46;;;;;;;2.13;1.57;;;27.30;41.80;;;;;;5094858;28;20475;-45
2022/08/07 11:04:22;;;;;;;3.53;2.00;;;26.80;42.40;;;;;;5094744;28;20457;-50
2022/08/07 11:07:01;;;;;;;2.27;2.03;;;26.40;42.90;;;;;;5094520;28;20482;-46
2022/08/07 11:09:31;;;;;;;3.23;1.50;;;26.20;43.90;;;;;;5095852;28;20472;-52
2022/08/07 11:12:04;;;;;;;2.40;1.70;;;26.00;44.10;;;;;;5095058;28;20483;-49
2022/08/07 11:14:40;;;;;;;4.40;1.97;;;25.90;44.40;;;;;;5100069;28;20465;-51
2022/08/07 11:17:14;;;;;;;1.63;1.43;;;26.00;44.70;;;;;;5098488;28;20448;-51
2022/08/07 11:19:50;;;;;;;3.33;1.63;;;26.50;43.90;;;;;;5097628;28;20444;-53
2022/08/07 11:22:24;;;;;;;2.90;1.50;;;26.90;44.30;;;;;;5096976;28;20476;-48
2022/08/07 11:24:59;;;;;;;2.80;2.07;;;27.30;43.60;;;;;;5096475;28;20429;-51
2022/08/07 11:27:50;;;;;;;2.33;1.50;;;27.60;42.50;;;;;;5096669;28;20533;-52
2022/08/07 11:30:20;;;;;;;2.47;1.87;;;27.80;43.50;;;;;;5095339;28;20433;-55
2022/08/07 11:32:54;;;;;;;2.40;1.60;;;28.10;42.00;;;;;;5097032;28;20539;-57
2022/08/07 11:35:23;;;;;;;1.60;1.50;;;28.50;41.60;;;;;;5097444;28;20450;-47
2022/08/07 11:38:09;;;;;;;2.53;1.80;;;28.60;41.70;;;;;;5099643;28;20475;-51
2022/08/07 11:40:47;;;;;;;3.77;1.73;;;28.80;41.60;;;;;;5100892;28;20433;-53
2022/08/07 11:43:19;;;;;;;2.20;1.73;;;28.80;40.40;;;;;;5100519;28;20463;-53
2022/08/07 11:46:05;;;;;;;6.63;2.23;;;28.50;40.20;;;;;;5100218;28;20494;-50
2022/08/07 11:48:54;;;;;;;2.20;1.77;;;28.50;41.00;;;;;;5086608;28;20475;-54
2022/08/07 11:51:34;;;;;;;2.70;1.60;;;28.50;40.60;;;;;;5101079;28;20441;-52
2022/08/07 11:54:36;;;;;;;1.67;1.37;;;28.40;40.60;;;;;;5096936;28;20845;-49
2022/08/07 11:57:17;;;;;;;3.00;1.83;;;28.40;41.40;;;;;;5079313;28;20445;-54
2022/08/07 12:00:18;;;;;;;2.30;1.43;;;28.10;41.30;;;;;;5103814;28;20472;-53
2022/08/07 12:03:16;;;;;;;4.60;2.03;;;28.00;41.50;;;;;;5018250;28;20942;-47
2022/08/07 12:05:55;;;;;;;3.00;1.50;;;28.10;41.00;;;;;;5100154;28;20473;-53
2022/08/07 12:08:30;;;;;;;2.13;1.57;;;28.00;41.20;;;;;;5079686;28;20454;-49
2022/08/07 12:11:00;;;;;;;2.80;2.13;;;27.80;41.70;;;;;;5080015;28;20470;-48
2022/08/07 12:13:29;;;;;;;3.20;1.70;;;27.70;41.80;;;;;;5080095;28;20446;-50
2022/08/07 12:16:04;;;;;;;2.60;1.50;;;27.80;42.10;;;;;;5079990;28;20472;-54
2022/08/07 12:18:37;;;;;;;2.63;1.63;;;27.80;42.00;;;;;;5088401;28;20443;-49
2022/08/07 12:21:19;;;;;;;2.10;1.50;;;27.90;42.20;;;;;;5100299;28;20476;-51
2022/08/07 12:23:51;;;;;;;2.20;1.90;;;27.90;42.40;;;;;;5100011;28;20518;-47
2022/08/07 12:26:27;;;;;;;2.20;1.80;;;28.20;42.30;;;;;;5100273;28;20436;-49
2022/08/07 12:29:05;;;;;;;2.50;1.90;;;28.40;41.90;;;;;;5099002;28;20475;-46
2022/08/07 12:31:38;;;;;;;2.37;1.90;;;28.50;41.00;;;;;;5098934;28;20445;-45
2022/08/07 12:34:06;;;;;;;2.50;1.60;;;28.50;41.00;;;;;;5099281;28;20527;-49
2022/08/07 12:36:36;;;;;;;1.90;1.63;;;28.40;40.80;;;;;;5098781;28;20485;-48
2022/08/07 12:39:05;;;;;;;2.73;1.60;;;28.50;41.00;;;;;;5098697;28;20469;-48
2022/08/07 12:41:35;;;;;;;1.77;1.50;;;28.50;40.60;;;;;;5099022;28;20473;-52
2022/08/07 12:44:06;;;;;;;2.03;1.63;;;28.60;41.60;;;;;;5094854;28;20445;-51
2022/08/07 12:46:50;;;;;;;2.60;1.83;;;28.50;40.60;;;;;;5092042;28;20659;-51
2022/08/07 12:49:25;;;;;;;2.23;2.03;;;28.30;41.10;;;;;;5092993;28;20495;-52
2022/08/07 12:52:01;;;;;;;2.17;1.50;;;28.10;40.90;;;;;;5099957;28;20475;-51
2022/08/07 12:54:35;;;;;;;2.23;1.70;;;27.80;41.10;;;;;;5100865;28;20422;-55
2022/08/07 12:57:04;;;;;;;4.43;1.83;;;27.50;41.50;;;;;;5099788;28;20473;-54
2022/08/07 12:59:35;;;;;;;3.10;1.73;;;27.20;41.90;;;;;;5099936;28;20513;-52
2022/08/07 13:02:12;;;;;;;6.60;4.60;;;27.10;42.00;;;;;;5099200;28;20496;-52
2022/08/07 13:04:48;;;;;;;2.00;1.80;;;27.00;42.30;;;;;;5099608;28;20534;-50
2022/08/07 13:07:33;;;;;;;3.87;2.33;;;26.90;43.00;;;;;;5099592;28;20436;-50
2022/08/07 13:10:14;;;;;;;3.00;1.90;;;26.70;43.20;;;;;;5099258;28;20428;-49
2022/08/07 13:13:09;;;;;;;2.50;1.93;;;26.50;43.10;;;;;;5099405;28;20430;-55
2022/08/07 13:15:46;;;;;;;3.80;2.63;;;26.50;43.90;;;;;;5099075;28;20440;-54